Time;durP1;ratioP1;P1;durP2;ratioP2;P2;SDS_P1;SDS_P2;PMS_P1;PMS_P2;Temp;Humidity;BMP_temperature;BMP_pressure;BME280_temperature;BME280_humidity;BME280_pressure;Samples;Min_cycle;Max_cycle;Signal;HPM_P1;HPM_P2
2021/09/24 00:01:44;;;;;;;15.23;7.40;;;;;;;;;;5076540;28;20481;-82
2021/09/24 00:04:12;;;;;;;19.43;7.33;;;;;;;;;;5076795;28;20757;-82
2021/09/24 00:06:39;;;;;;;18.10;7.83;;;;;;;;;;5081341;28;20458;-81
2021/09/24 00:09:06;;;;;;;16.53;7.73;;;;;;;;;;5102182;28;20974;-81
2021/09/24 00:11:33;;;;;;;16.70;8.40;;;;;;;;;;5100411;28;20449;-81
2021/09/24 00:14:01;;;;;;;18.80;8.50;;;;;;;;;;5105577;28;20440;-81
2021/09/24 00:16:28;;;;;;;15.37;8.20;;;;;;;;;;5107745;28;20759;-80
2021/09/24 00:18:56;;;;;;;17.90;8.27;;;;;;;;;;5094832;28;20476;-81
2021/09/24 00:21:24;;;;;;;19.13;8.97;;;;;;;;;;5094753;28;20457;-80
2021/09/24 00:23:51;;;;;;;14.10;7.70;;;;;;;;;;5105505;28;20438;-80
2021/09/24 00:26:18;;;;;;;16.57;8.00;;;;;;;;;;5109432;28;20460;-83
2021/09/24 00:28:45;;;;;;;18.07;8.50;;;;;;;;;;5094537;28;20468;-81
2021/09/24 00:31:13;;;;;;;15.20;8.33;;;;;;;;;;5094088;28;20456;-81
2021/09/24 00:33:40;;;;;;;16.50;7.57;;;;;;;;;;5093246;28;20471;-80
2021/09/24 00:36:08;;;;;;;19.00;9.33;;;;;;;;;;5090833;28;20551;-81
2021/09/24 00:38:38;;;;;;;17.07;9.40;;;;;;;;;;5093466;28;20859;-80
2021/09/24 00:41:05;;;;;;;20.50;9.67;;;;;;;;;;5097534;28;20453;-81
2021/09/24 00:43:33;;;;;;;20.90;11.53;;;;;;;;;;5097206;28;20488;-80
2021/09/24 00:46:01;;;;;;;18.50;10.13;;;;;;;;;;5096223;28;20452;-81
2021/09/24 00:48:28;;;;;;;19.87;10.10;;;;;;;;;;5076646;28;20466;-80
2021/09/24 00:50:55;;;;;;;22.47;12.03;;;;;;;;;;5077475;28;20457;-84
2021/09/24 00:53:24;;;;;;;23.70;13.43;;;;;;;;;;5077089;28;20478;-82
2021/09/24 00:55:51;;;;;;;20.33;12.90;;;;;;;;;;5092342;28;20461;-83
2021/09/24 00:58:18;;;;;;;23.77;14.37;;;;;;;;;;5107114;28;20483;-82
2021/09/24 01:00:45;;;;;;;26.17;15.20;;;;;;;;;;5109212;28;20457;-81
2021/09/24 01:03:12;;;;;;;24.97;15.30;;;;;;;;;;5111586;28;20895;-81
2021/09/24 01:05:39;;;;;;;23.07;14.70;;;;;;;;;;5107957;28;20451;-82
2021/09/24 01:08:07;;;;;;;25.57;15.40;;;;;;;;;;5103203;28;20473;-82
2021/09/24 01:10:35;;;;;;;23.57;13.63;;;;;;;;;;5076784;28;20456;-80
2021/09/24 01:13:02;;;;;;;28.20;15.90;;;;;;;;;;5078745;28;20442;-81
2021/09/24 01:15:30;;;;;;;27.23;15.53;;;;;;;;;;5076874;28;20458;-81
2021/09/24 01:17:57;;;;;;;25.50;14.97;;;;;;;;;;5076402;28;20479;-81
2021/09/24 01:20:24;;;;;;;27.30;15.30;;;;;;;;;;5076973;28;20472;-82
2021/09/24 01:22:53;;;;;;;27.90;16.47;;;;;;;;;;5081104;28;20490;-80
2021/09/24 01:25:21;;;;;;;32.10;16.47;;;;;;;;;;5075297;28;20460;-81
2021/09/24 01:27:49;;;;;;;24.90;15.97;;;;;;;;;;5074627;28;20467;-81
2021/09/24 01:30:16;;;;;;;22.90;13.57;;;;;;;;;;5075126;28;20450;-81
2021/09/24 01:32:43;;;;;;;25.07;14.60;;;;;;;;;;5077117;28;20456;-84
2021/09/24 01:35:11;;;;;;;25.90;15.00;;;;;;;;;;5077605;28;20458;-79
2021/09/24 01:37:38;;;;;;;27.93;17.57;;;;;;;;;;5076481;28;20572;-80
2021/09/24 01:40:09;;;;;;;26.17;16.13;;;;;;;;;;5078278;28;20458;-83
2021/09/24 01:42:36;;;;;;;23.13;14.50;;;;;;;;;;5078422;28;20491;-80
2021/09/24 01:45:04;;;;;;;24.93;16.23;;;;;;;;;;5077159;28;20981;-81
2021/09/24 01:47:31;;;;;;;23.23;14.33;;;;;;;;;;5075417;28;20481;-82
2021/09/24 01:49:58;;;;;;;24.97;14.90;;;;;;;;;;5075574;28;20526;-81
2021/09/24 01:52:25;;;;;;;20.63;13.50;;;;;;;;;;5075504;28;20457;-81
2021/09/24 01:54:52;;;;;;;23.83;14.90;;;;;;;;;;5076682;28;20461;-82
2021/09/24 01:57:21;;;;;;;23.90;14.10;;;;;;;;;;5076316;28;20482;-81
2021/09/24 01:59:48;;;;;;;20.73;13.17;;;;;;;;;;5075537;28;20456;-81
2021/09/24 02:02:15;;;;;;;23.17;14.40;;;;;;;;;;5076351;28;20534;-81
2021/09/24 02:04:42;;;;;;;24.00;14.27;;;;;;;;;;5075522;28;20464;-81
2021/09/24 02:07:10;;;;;;;25.90;14.00;;;;;;;;;;5075733;28;20470;-82
2021/09/24 02:09:37;;;;;;;25.17;14.00;;;;;;;;;;5075887;28;20982;-81
2021/09/24 02:12:04;;;;;;;20.80;12.80;;;;;;;;;;5075376;28;20442;-81
2021/09/24 02:14:33;;;;;;;22.27;13.00;;;;;;;;;;5075002;28;20455;-81
2021/09/24 02:17:00;;;;;;;26.30;12.07;;;;;;;;;;5073717;28;20971;-80
2021/09/24 02:19:27;;;;;;;21.07;13.63;;;;;;;;;;5093155;28;20837;-81
2021/09/24 02:21:54;;;;;;;26.80;14.93;;;;;;;;;;5093810;28;20457;-81
2021/09/24 02:24:21;;;;;;;24.60;14.07;;;;;;;;;;5110770;28;20478;-81
2021/09/24 02:26:49;;;;;;;23.10;13.40;;;;;;;;;;5114044;28;20457;-81
2021/09/24 02:29:16;;;;;;;22.23;12.70;;;;;;;;;;5114794;28;20448;-80
2021/09/24 02:31:44;;;;;;;22.97;12.03;;;;;;;;;;5079842;28;20465;-81
2021/09/24 02:34:11;;;;;;;22.83;12.50;;;;;;;;;;5073587;28;20953;-80
2021/09/24 02:36:39;;;;;;;22.30;13.40;;;;;;;;;;5075413;28;20549;-79
2021/09/24 02:39:06;;;;;;;17.40;8.97;;;;;;;;;;5079656;28;20442;-78
2021/09/24 02:41:34;;;;;;;11.37;4.50;;;;;;;;;;5097788;28;20441;-79
2021/09/24 02:44:01;;;;;;;19.30;12.00;;;;;;;;;;5101181;28;20833;-78
2021/09/24 02:46:28;;;;;;;19.30;11.40;;;;;;;;;;5096179;28;20449;-78
2021/09/24 02:48:57;;;;;;;20.13;12.23;;;;;;;;;;5082273;28;20466;-79
2021/09/24 02:51:24;;;;;;;23.37;12.70;;;;;;;;;;5079719;28;20453;-79
2021/09/24 02:53:51;;;;;;;20.17;11.77;;;;;;;;;;5089921;28;20451;-78
2021/09/24 02:56:19;;;;;;;24.90;14.13;;;;;;;;;;5082686;28;20488;-77
2021/09/24 02:58:46;;;;;;;20.90;13.20;;;;;;;;;;5095262;28;20556;-78
2021/09/24 03:01:13;;;;;;;21.33;13.30;;;;;;;;;;5094465;28;20453;-78
2021/09/24 03:03:40;;;;;;;23.07;12.20;;;;;;;;;;5095340;28;20489;-78
2021/09/24 03:06:09;;;;;;;24.50;13.60;;;;;;;;;;5094731;28;20771;-79
2021/09/24 03:08:36;;;;;;;25.47;12.53;;;;;;;;;;5095510;28;20475;-79
2021/09/24 03:11:03;;;;;;;31.60;17.30;;;;;;;;;;5084626;28;20451;-77
2021/09/24 03:13:30;;;;;;;23.80;13.00;;;;;;;;;;5075062;28;20478;-77
2021/09/24 03:15:59;;;;;;;24.97;14.83;;;;;;;;;;5075152;28;20850;-78
2021/09/24 03:18:26;;;;;;;22.27;12.57;;;;;;;;;;5074137;28;20481;-77
2021/09/24 03:20:53;;;;;;;22.83;13.27;;;;;;;;;;5083273;28;20452;-79
2021/09/24 03:23:22;;;;;;;23.53;13.93;;;;;;;;;;5095196;28;20518;-78
2021/09/24 03:25:50;;;;;;;23.47;14.00;;;;;;;;;;5095044;28;20461;-77
2021/09/24 03:28:17;;;;;;;24.73;15.27;;;;;;;;;;5095074;28;20911;-79
2021/09/24 03:30:44;;;;;;;23.90;15.30;;;;;;;;;;5094184;28;20446;-78
2021/09/24 03:33:12;;;;;;;22.77;14.50;;;;;;;;;;5094149;28;20456;-78
2021/09/24 03:35:39;;;;;;;28.40;16.20;;;;;;;;;;5094310;28;20946;-78
2021/09/24 03:38:06;;;;;;;27.10;16.27;;;;;;;;;;5093204;28;20477;-79
2021/09/24 03:40:35;;;;;;;27.53;18.27;;;;;;;;;;5088115;28;20672;-78
2021/09/24 03:43:02;;;;;;;31.17;17.47;;;;;;;;;;5073593;28;20486;-80
2021/09/24 03:45:29;;;;;;;38.10;21.57;;;;;;;;;;5069120;28;20477;-77
2021/09/24 03:47:56;;;;;;;37.60;23.77;;;;;;;;;;5072660;28;20473;-80
2021/09/24 03:50:24;;;;;;;30.97;21.73;;;;;;;;;;5067889;28;20464;-81
2021/09/24 03:52:51;;;;;;;31.97;20.17;;;;;;;;;;5075041;28;20457;-78
2021/09/24 03:55:18;;;;;;;32.13;23.27;;;;;;;;;;5077595;28;20453;-81
2021/09/24 03:57:47;;;;;;;34.30;23.77;;;;;;;;;;5063715;28;21469;-80
2021/09/24 04:00:15;;;;;;;33.83;25.33;;;;;;;;;;5069247;28;20446;-82
2021/09/24 04:02:42;;;;;;;31.30;21.87;;;;;;;;;;5090891;28;20929;-82
2021/09/24 04:05:09;;;;;;;33.60;23.70;;;;;;;;;;5099922;28;20532;-79
2021/09/24 04:07:36;;;;;;;38.70;25.07;;;;;;;;;;5109061;28;20468;-79
2021/09/24 04:10:04;;;;;;;38.10;26.00;;;;;;;;;;5090066;28;20457;-80
2021/09/24 04:12:31;;;;;;;39.63;27.17;;;;;;;;;;5073191;28;20827;-79
2021/09/24 04:15:00;;;;;;;38.50;25.13;;;;;;;;;;5073720;28;21055;-78
2021/09/24 04:17:27;;;;;;;42.07;26.90;;;;;;;;;;5074259;28;20466;-79
2021/09/24 04:19:54;;;;;;;33.23;23.60;;;;;;;;;;5076008;28;20973;-80
2021/09/24 04:22:21;;;;;;;41.83;27.40;;;;;;;;;;5076255;28;20442;-77
2021/09/24 04:24:48;;;;;;;42.97;27.07;;;;;;;;;;5076617;28;20491;-82
2021/09/24 04:27:15;;;;;;;40.47;25.60;;;;;;;;;;5073886;28;20475;-82
2021/09/24 04:29:42;;;;;;;35.90;22.17;;;;;;;;;;5076468;28;20836;-78
2021/09/24 04:32:11;;;;;;;38.00;25.50;;;;;;;;;;5075208;28;20450;-82
2021/09/24 04:34:38;;;;;;;41.23;24.80;;;;;;;;;;5075965;28;20442;-80
2021/09/24 04:37:06;;;;;;;35.37;23.40;;;;;;;;;;5074380;28;20485;-81
2021/09/24 04:39:33;;;;;;;40.17;23.50;;;;;;;;;;5075965;28;20461;-82
2021/09/24 04:42:00;;;;;;;34.63;23.80;;;;;;;;;;5092096;28;20451;-81
2021/09/24 04:44:27;;;;;;;38.20;24.33;;;;;;;;;;5082934;28;20890;-80
2021/09/24 04:46:54;;;;;;;43.43;27.60;;;;;;;;;;5074526;28;20475;-80
2021/09/24 04:49:23;;;;;;;40.40;25.67;;;;;;;;;;5076008;28;20962;-81
2021/09/24 04:51:50;;;;;;;44.57;25.70;;;;;;;;;;5090198;28;20449;-80
2021/09/24 04:54:17;;;;;;;39.17;24.43;;;;;;;;;;5093699;28;20447;-79
2021/09/24 04:56:45;;;;;;;53.57;25.73;;;;;;;;;;5103621;28;20456;-80
2021/09/24 04:59:12;;;;;;;43.63;25.33;;;;;;;;;;5103564;28;20461;-81
2021/09/24 05:01:39;;;;;;;53.50;29.07;;;;;;;;;;5106631;28;21124;-79
2021/09/24 05:04:06;;;;;;;48.80;27.73;;;;;;;;;;5075730;28;20488;-80
2021/09/24 05:06:34;;;;;;;41.97;25.90;;;;;;;;;;5074678;28;20813;-80
2021/09/24 05:09:01;;;;;;;47.93;26.93;;;;;;;;;;5087002;28;20961;-79
2021/09/24 05:11:29;;;;;;;42.20;26.43;;;;;;;;;;5084018;28;20466;-81
2021/09/24 05:13:56;;;;;;;44.97;25.97;;;;;;;;;;5076142;28;20455;-82
2021/09/24 05:16:23;;;;;;;50.17;26.90;;;;;;;;;;5074834;28;20547;-80
2021/09/24 05:18:50;;;;;;;47.27;27.17;;;;;;;;;;5075074;28;20492;-80
2021/09/24 05:21:18;;;;;;;56.43;30.60;;;;;;;;;;5075778;28;20452;-80
2021/09/24 05:23:46;;;;;;;67.07;35.07;;;;;;;;;;5074910;28;20558;-80
2021/09/24 05:26:13;;;;;;;59.10;32.70;;;;;;;;;;5074101;28;20468;-79
2021/09/24 05:28:40;;;;;;;65.50;33.50;;;;;;;;;;5074743;28;20475;-80
2021/09/24 05:31:08;;;;;;;62.53;32.97;;;;;;;;;;5083477;28;20453;-78
2021/09/24 05:33:35;;;;;;;62.70;31.80;;;;;;;;;;5095350;28;20448;-81
2021/09/24 05:36:02;;;;;;;58.00;31.77;;;;;;;;;;5094789;28;20545;-80
2021/09/24 05:38:29;;;;;;;54.43;30.63;;;;;;;;;;5094714;28;20489;-81
2021/09/24 05:40:58;;;;;;;58.30;31.93;;;;;;;;;;5090528;28;20998;-81
2021/09/24 05:43:25;;;;;;;64.10;34.47;;;;;;;;;;5112754;28;20486;-80
2021/09/24 05:45:53;;;;;;;58.13;33.43;;;;;;;;;;5116431;28;20448;-83
2021/09/24 05:48:20;;;;;;;59.33;32.27;;;;;;;;;;5099246;28;20480;-82
2021/09/24 05:50:47;;;;;;;60.33;33.07;;;;;;;;;;5097786;28;20458;-80
2021/09/24 05:53:14;;;;;;;74.47;36.70;;;;;;;;;;5101689;28;20454;-82
2021/09/24 05:55:42;;;;;;;58.93;31.93;;;;;;;;;;5099537;28;20605;-83
2021/09/24 05:58:11;;;;;;;63.83;34.20;;;;;;;;;;5088382;28;20468;-83
2021/09/24 06:00:38;;;;;;;64.43;31.13;;;;;;;;;;5104383;28;20454;-81
2021/09/24 06:03:06;;;;;;;21.07;9.93;;;;;;;;;;5090111;28;20435;-83
2021/09/24 06:05:34;;;;;;;32.67;16.00;;;;;;;;;;5081168;28;20722;-84
2021/09/24 06:08:01;;;;;;;52.13;24.40;;;;;;;;;;5090712;28;20527;-82
2021/09/24 06:10:28;;;;;;;50.23;27.37;;;;;;;;;;5093248;28;20451;-81
2021/09/24 06:12:55;;;;;;;60.03;30.70;;;;;;;;;;5095608;28;20502;-83
2021/09/24 06:15:25;;;;;;;48.50;27.50;;;;;;;;;;5085053;28;20442;-81
2021/09/24 06:17:52;;;;;;;48.37;27.60;;;;;;;;;;5088227;28;21005;-82
2021/09/24 06:20:19;;;;;;;49.97;29.27;;;;;;;;;;5091890;28;20445;-82
2021/09/24 06:22:47;;;;;;;49.10;28.27;;;;;;;;;;5092937;28;20482;-84
2021/09/24 06:25:15;;;;;;;62.43;32.10;;;;;;;;;;5080432;28;20492;-83
2021/09/24 06:27:43;;;;;;;58.43;34.50;;;;;;;;;;5078679;28;20595;-82
2021/09/24 06:30:11;;;;;;;62.50;34.40;;;;;;;;;;5090872;28;20449;-84
2021/09/24 06:32:40;;;;;;;60.03;32.20;;;;;;;;;;5083841;28;20461;-83
2021/09/24 06:35:08;;;;;;;59.77;31.03;;;;;;;;;;5091961;28;20548;-83
2021/09/24 06:37:35;;;;;;;57.07;31.27;;;;;;;;;;5085111;28;20483;-83
2021/09/24 06:40:03;;;;;;;71.70;34.33;;;;;;;;;;5086472;28;20540;-82
2021/09/24 06:42:30;;;;;;;72.17;31.73;;;;;;;;;;5084188;28;20536;-83
2021/09/24 06:44:57;;;;;;;74.33;33.13;;;;;;;;;;5081576;28;20491;-83
2021/09/24 06:47:25;;;;;;;58.73;31.77;;;;;;;;;;5079362;28;20463;-83
2021/09/24 06:49:54;;;;;;;50.90;26.93;;;;;;;;;;5083088;28;20445;-83
2021/09/24 06:52:22;;;;;;;54.80;28.70;;;;;;;;;;5084599;28;20445;-82
2021/09/24 06:54:50;;;;;;;60.70;29.10;;;;;;;;;;5087161;28;20447;-82
2021/09/24 06:57:17;;;;;;;52.30;26.77;;;;;;;;;;5083564;28;21026;-81
2021/09/24 06:59:45;;;;;;;51.63;26.73;;;;;;;;;;5087554;28;20454;-81
2021/09/24 07:02:12;;;;;;;50.90;26.20;;;;;;;;;;5083547;28;20530;-81
2021/09/24 07:04:39;;;;;;;54.63;27.33;;;;;;;;;;5084729;28;20478;-81
2021/09/24 07:07:09;;;;;;;59.53;29.77;;;;;;;;;;5083089;28;20482;-82
2021/09/24 07:09:36;;;;;;;55.57;28.80;;;;;;;;;;5072269;28;20977;-81
2021/09/24 07:12:03;;;;;;;54.00;28.13;;;;;;;;;;5083888;28;20979;-82
2021/09/24 07:14:31;;;;;;;55.20;27.90;;;;;;;;;;5085208;28;20460;-81
2021/09/24 07:16:59;;;;;;;46.17;24.73;;;;;;;;;;5081860;28;20545;-80
2021/09/24 07:19:27;;;;;;;42.27;25.37;;;;;;;;;;5091108;28;20525;-81
2021/09/24 07:21:54;;;;;;;42.20;23.37;;;;;;;;;;5079666;28;20430;-81
2021/09/24 07:24:23;;;;;;;37.47;21.73;;;;;;;;;;5090440;28;20487;-80
2021/09/24 07:26:50;;;;;;;49.93;26.37;;;;;;;;;;5091465;28;20456;-80
2021/09/24 07:29:17;;;;;;;44.07;25.40;;;;;;;;;;5088318;28;20444;-80
2021/09/24 07:31:44;;;;;;;47.47;25.20;;;;;;;;;;5073350;28;20446;-81
2021/09/24 07:34:12;;;;;;;42.50;23.60;;;;;;;;;;5073947;28;20454;-82
2021/09/24 07:36:39;;;;;;;42.07;22.60;;;;;;;;;;5074105;28;20462;-81
2021/09/24 07:39:06;;;;;;;39.73;22.50;;;;;;;;;;5076009;28;20952;-81
2021/09/24 07:41:35;;;;;;;43.03;24.00;;;;;;;;;;5076667;28;20450;-81
2021/09/24 07:44:03;;;;;;;37.20;21.30;;;;;;;;;;5078386;28;20517;-81
2021/09/24 07:46:31;;;;;;;38.93;21.90;;;;;;;;;;5090974;28;20465;-82
2021/09/24 07:48:58;;;;;;;42.90;22.87;;;;;;;;;;5084489;28;20568;-81
2021/09/24 07:51:25;;;;;;;37.73;23.30;;;;;;;;;;5094021;28;20459;-81
2021/09/24 07:53:53;;;;;;;49.20;25.73;;;;;;;;;;5087051;28;20517;-82
2021/09/24 07:56:20;;;;;;;48.57;24.87;;;;;;;;;;5090487;28;20465;-83
2021/09/24 07:58:48;;;;;;;41.70;26.07;;;;;;;;;;5087259;28;20485;-82
2021/09/24 08:01:17;;;;;;;41.47;25.10;;;;;;;;;;5076524;28;20847;-81
2021/09/24 08:03:44;;;;;;;44.50;27.77;;;;;;;;;;5081094;28;20457;-81
2021/09/24 08:06:11;;;;;;;45.87;26.70;;;;;;;;;;5080476;28;20443;-80
2021/09/24 08:08:38;;;;;;;44.77;25.60;;;;;;;;;;5092205;28;20469;-81
2021/09/24 08:11:06;;;;;;;42.23;25.60;;;;;;;;;;5085916;28;20444;-81
2021/09/24 08:13:33;;;;;;;49.17;28.40;;;;;;;;;;5084501;28;20463;-82
2021/09/24 08:16:01;;;;;;;49.17;26.60;;;;;;;;;;5084631;28;20453;-82
2021/09/24 08:18:28;;;;;;;44.60;27.40;;;;;;;;;;5081090;28;20470;-82
2021/09/24 08:20:58;;;;;;;49.37;29.10;;;;;;;;;;5083502;28;20437;-80
2021/09/24 08:23:25;;;;;;;44.50;25.90;;;;;;;;;;5083494;28;20472;-82
2021/09/24 08:25:52;;;;;;;46.83;28.10;;;;;;;;;;5081517;28;20489;-82
2021/09/24 08:28:19;;;;;;;51.93;29.80;;;;;;;;;;5078814;28;20529;-80
2021/09/24 08:30:47;;;;;;;50.20;28.03;;;;;;;;;;5094844;28;20454;-82
2021/09/24 08:33:15;;;;;;;56.60;29.37;;;;;;;;;;5085150;28;20461;-82
2021/09/24 08:35:43;;;;;;;52.90;29.80;;;;;;;;;;5107587;28;20457;-82
2021/09/24 08:38:10;;;;;;;48.30;28.87;;;;;;;;;;5081763;28;20477;-81
2021/09/24 08:40:38;;;;;;;58.17;28.93;;;;;;;;;;5109185;28;20465;-82
2021/09/24 08:43:06;;;;;;;47.70;27.20;;;;;;;;;;5108486;28;20453;-81
2021/09/24 08:45:34;;;;;;;49.53;27.80;;;;;;;;;;5087722;28;20528;-80
2021/09/24 08:48:03;;;;;;;48.83;30.10;;;;;;;;;;5090985;28;20878;-82
2021/09/24 08:50:32;;;;;;;47.97;26.27;;;;;;;;;;5094043;28;20443;-81
2021/09/24 08:53:00;;;;;;;51.97;27.33;;;;;;;;;;5112302;28;20461;-82
2021/09/24 08:55:27;;;;;;;53.17;29.60;;;;;;;;;;5110320;28;20476;-81
2021/09/24 08:57:54;;;;;;;53.13;26.23;;;;;;;;;;5090936;28;20482;-81
2021/09/24 09:00:22;;;;;;;48.63;26.03;;;;;;;;;;5097699;28;20455;-82
2021/09/24 09:02:53;;;;;;;40.70;22.73;;;;;;;;;;5093693;28;20798;-83
2021/09/24 09:05:20;;;;;;;41.40;22.80;;;;;;;;;;5090409;28;20518;-83
2021/09/24 09:07:49;;;;;;;38.50;22.37;;;;;;;;;;5091749;28;20474;-82
2021/09/24 09:10:16;;;;;;;35.50;22.73;;;;;;;;;;5095425;28;20451;-82
2021/09/24 09:12:44;;;;;;;41.37;24.00;;;;;;;;;;5080676;28;20453;-81
2021/09/24 09:15:12;;;;;;;43.10;23.97;;;;;;;;;;5077264;28;20450;-82
2021/09/24 09:17:41;;;;;;;39.90;22.80;;;;;;;;;;5078532;28;20936;-82
2021/09/24 09:20:13;;;;;;;40.03;21.20;;;;;;;;;;5080607;28;20483;-80
2021/09/24 09:22:40;;;;;;;34.77;19.43;;;;;;;;;;5104740;28;20460;-81
2021/09/24 09:25:13;;;;;;;40.20;22.57;;;;;;;;;;5109175;28;21020;-81
2021/09/24 09:27:40;;;;;;;39.90;20.50;;;;;;;;;;5105923;28;20464;-82
2021/09/24 09:30:11;;;;;;;37.80;22.47;;;;;;;;;;5104480;28;20937;-82
2021/09/24 09:32:38;;;;;;;38.70;20.10;;;;;;;;;;5089195;28;20454;-81
2021/09/24 09:35:06;;;;;;;35.87;19.73;;;;;;;;;;5088735;28;20459;-83
2021/09/24 09:37:35;;;;;;;41.00;20.90;;;;;;;;;;5083623;28;20489;-82
2021/09/24 09:40:04;;;;;;;37.33;18.60;;;;;;;;;;5087518;28;20451;-81
2021/09/24 09:42:36;;;;;;;35.20;20.03;;;;;;;;;;5092831;28;20453;-80
2021/09/24 09:45:04;;;;;;;36.30;20.47;;;;;;;;;;5096221;28;20496;-81
2021/09/24 09:47:32;;;;;;;32.33;18.03;;;;;;;;;;5094231;28;20527;-81
2021/09/24 09:50:10;;;;;;;35.60;20.83;;;;;;;;;;5088001;28;20822;-80
2021/09/24 09:52:52;;;;;;;35.97;22.17;;;;;;;;;;5094988;28;20451;-81
2021/09/24 09:55:20;;;;;;;38.70;19.63;;;;;;;;;;5089424;28;20460;-81
2021/09/24 09:57:52;;;;;;;35.43;19.33;;;;;;;;;;5100880;28;20479;-80
2021/09/24 10:00:19;;;;;;;37.17;19.23;;;;;;;;;;5101578;28;20471;-82
2021/09/24 10:02:49;;;;;;;34.57;17.60;;;;;;;;;;5095315;28;20544;-80
2021/09/24 10:05:31;;;;;;;31.97;17.37;;;;;;;;;;5092918;28;21409;-80
2021/09/24 10:07:58;;;;;;;34.80;18.60;;;;;;;;;;5079830;28;20472;-80
2021/09/24 10:10:25;;;;;;;36.80;18.20;;;;;;;;;;5081801;28;20980;-81
2021/09/24 10:12:56;;;;;;;36.03;16.40;;;;;;;;;;5085701;28;20463;-81
2021/09/24 10:15:23;;;;;;;29.40;16.87;;;;;;;;;;5094717;28;20450;-80
2021/09/24 10:17:50;;;;;;;34.67;18.57;;;;;;;;;;5079589;28;20463;-81
2021/09/24 10:20:17;;;;;;;34.50;17.20;;;;;;;;;;5092742;28;20509;-82
2021/09/24 10:22:44;;;;;;;30.40;16.93;;;;;;;;;;5097050;28;20449;-81
2021/09/24 10:25:12;;;;;;;32.10;15.93;;;;;;;;;;5092814;28;20567;-81
2021/09/24 10:27:44;;;;;;;31.23;15.57;;;;;;;;;;5103478;28;20473;-81
2021/09/24 10:30:14;;;;;;;28.33;15.17;;;;;;;;;;5116136;28;20445;-82
2021/09/24 10:32:54;;;;;;;29.93;16.40;;;;;;;;;;5089244;28;20450;-83
2021/09/24 10:35:21;;;;;;;29.77;17.00;;;;;;;;;;5102615;28;20437;-81
2021/09/24 10:37:50;;;;;;;31.67;16.00;;;;;;;;;;5074982;28;20477;-83
2021/09/24 10:40:27;;;;;;;36.50;17.37;;;;;;;;;;5079731;28;20452;-81
2021/09/24 10:42:58;;;;;;;37.57;17.30;;;;;;;;;;5097084;28;20447;-83
2021/09/24 10:45:35;;;;;;;28.40;15.00;;;;;;;;;;5102355;28;20490;-82
2021/09/24 10:48:03;;;;;;;31.00;16.23;;;;;;;;;;5091353;28;20507;-81
2021/09/24 10:51:01;;;;;;;28.93;15.10;;;;;;;;;;5092121;28;20446;-81
2021/09/24 10:53:46;;;;;;;29.80;15.10;;;;;;;;;;5086967;28;20477;-80
2021/09/24 10:56:40;;;;;;;28.40;14.27;;;;;;;;;;5090667;28;20458;-82
2021/09/24 10:59:25;;;;;;;28.10;15.10;;;;;;;;;;5103750;28;20444;-80
2021/09/24 11:01:53;;;;;;;24.80;14.10;;;;;;;;;;5078638;28;20447;-82
2021/09/24 11:04:20;;;;;;;29.60;13.33;;;;;;;;;;5091278;28;20470;-83
2021/09/24 11:06:50;;;;;;;23.13;12.87;;;;;;;;;;5090509;28;20494;-83
2021/09/24 11:09:18;;;;;;;28.77;14.90;;;;;;;;;;5083394;28;20455;-83
2021/09/24 11:11:46;;;;;;;22.87;12.83;;;;;;;;;;5081241;28;20454;-81
2021/09/24 11:14:27;;;;;;;26.40;12.37;;;;;;;;;;5087656;28;20451;-82
2021/09/24 11:16:56;;;;;;;26.10;13.43;;;;;;;;;;5094779;28;20456;-82
2021/09/24 11:19:37;;;;;;;23.63;12.90;;;;;;;;;;5094775;28;20484;-82
2021/09/24 11:22:13;;;;;;;20.77;11.00;;;;;;;;;;5086173;28;20530;-82
2021/09/24 11:24:42;;;;;;;27.47;12.83;;;;;;;;;;5085080;28;20976;-82
2021/09/24 11:27:10;;;;;;;29.03;14.43;;;;;;;;;;5076522;28;20475;-82
2021/09/24 11:29:41;;;;;;;21.63;11.83;;;;;;;;;;5092926;28;20454;-81
2021/09/24 11:32:11;;;;;;;21.70;11.63;;;;;;;;;;5093189;28;20844;-82
2021/09/24 11:34:54;;;;;;;20.87;11.17;;;;;;;;;;5092018;28;20466;-82
2021/09/24 11:37:22;;;;;;;19.47;11.27;;;;;;;;;;5079659;28;20494;-81
2021/09/24 11:39:55;;;;;;;20.33;9.57;;;;;;;;;;5079596;28;20447;-81
2021/09/24 11:42:23;;;;;;;20.30;10.53;;;;;;;;;;5073034;28;20454;-82
2021/09/24 11:44:51;;;;;;;18.40;9.63;;;;;;;;;;5074278;28;20450;-82
2021/09/24 11:47:21;;;;;;;17.07;8.80;;;;;;;;;;5074139;28;20475;-83
2021/09/24 11:49:54;;;;;;;21.63;9.80;;;;;;;;;;5074008;28;20440;-81
2021/09/24 11:52:22;;;;;;;17.43;8.03;;;;;;;;;;5074747;28;20449;-82
2021/09/24 11:54:49;;;;;;;18.10;8.13;;;;;;;;;;5081950;28;20444;-81
2021/09/24 11:57:17;;;;;;;20.73;9.10;;;;;;;;;;5084747;28;20556;-82
2021/09/24 11:59:44;;;;;;;17.77;8.33;;;;;;;;;;5081479;28;20477;-82
2021/09/24 12:02:21;;;;;;;18.10;8.03;;;;;;;;;;5074449;28;20455;-82
2021/09/24 12:05:01;;;;;;;17.70;9.20;;;;;;;;;;5073307;28;20448;-83
2021/09/24 12:07:28;;;;;;;18.40;9.20;;;;;;;;;;5072581;28;20483;-81
2021/09/24 12:09:59;;;;;;;18.17;7.57;;;;;;;;;;5083602;28;20452;-82
2021/09/24 12:12:26;;;;;;;17.23;7.70;;;;;;;;;;5083254;28;20452;-83
2021/09/24 12:15:00;;;;;;;16.00;7.10;;;;;;;;;;5082119;28;20435;-83
2021/09/24 12:17:29;;;;;;;17.57;7.30;;;;;;;;;;5089884;28;20461;-82
2021/09/24 12:19:56;;;;;;;13.63;6.17;;;;;;;;;;5080418;28;20484;-83
2021/09/24 12:22:23;;;;;;;14.30;6.67;;;;;;;;;;5082017;28;20467;-84
2021/09/24 12:24:51;;;;;;;16.00;6.60;;;;;;;;;;5085190;28;20448;-81
2021/09/24 12:27:25;;;;;;;14.30;6.30;;;;;;;;;;5079624;28;20526;-81
2021/09/24 12:29:52;;;;;;;16.40;7.40;;;;;;;;;;5080224;28;20718;-83
2021/09/24 12:32:21;;;;;;;18.10;5.83;;;;;;;;;;5082484;28;20458;-81
2021/09/24 12:34:50;;;;;;;13.80;5.80;;;;;;;;;;5085424;28;20442;-83
2021/09/24 12:37:18;;;;;;;15.70;7.30;;;;;;;;;;5085598;28;20466;-82
2021/09/24 12:39:55;;;;;;;16.70;7.13;;;;;;;;;;5081804;28;20541;-83
2021/09/24 12:42:22;;;;;;;13.83;6.70;;;;;;;;;;5084339;28;20838;-82
2021/09/24 12:44:51;;;;;;;15.10;6.60;;;;;;;;;;5084845;28;20453;-82
2021/09/24 12:47:22;;;;;;;13.70;6.03;;;;;;;;;;5078296;28;20486;-83
2021/09/24 12:49:51;;;;;;;15.00;6.57;;;;;;;;;;5075964;28;20447;-83
2021/09/24 12:52:19;;;;;;;16.40;6.80;;;;;;;;;;5076379;28;20992;-83
2021/09/24 12:54:46;;;;;;;16.33;6.67;;;;;;;;;;5076910;28;20451;-82
2021/09/24 12:57:16;;;;;;;13.87;6.87;;;;;;;;;;5079743;28;20814;-83
2021/09/24 12:59:46;;;;;;;12.97;5.37;;;;;;;;;;5084695;28;20446;-82
2021/09/24 13:02:15;;;;;;;15.00;5.53;;;;;;;;;;5086035;28;20446;-84
2021/09/24 13:04:43;;;;;;;12.03;4.77;;;;;;;;;;5088577;28;20450;-84
2021/09/24 13:07:12;;;;;;;11.80;4.73;;;;;;;;;;5094279;28;20559;-83
2021/09/24 13:09:39;;;;;;;12.87;5.00;;;;;;;;;;5084527;28;20465;-82
2021/09/24 13:12:07;;;;;;;15.30;4.27;;;;;;;;;;5081664;28;20454;-81
2021/09/24 13:14:34;;;;;;;11.40;4.50;;;;;;;;;;5082018;28;20435;-82
2021/09/24 13:17:01;;;;;;;15.90;5.47;;;;;;;;;;5080750;28;20533;-82
2021/09/24 13:19:28;;;;;;;13.60;4.60;;;;;;;;;;5084707;28;20516;-82
2021/09/24 13:21:55;;;;;;;13.80;4.53;;;;;;;;;;5084925;28;20446;-83
2021/09/24 13:24:24;;;;;;;13.97;3.90;;;;;;;;;;5082743;28;20450;-83
2021/09/24 13:26:52;;;;;;;13.43;4.00;;;;;;;;;;5084498;28;20492;-82
2021/09/24 13:29:19;;;;;;;13.73;4.93;;;;;;;;;;5086738;28;20455;-83
2021/09/24 13:31:46;;;;;;;13.43;4.80;;;;;;;;;;5082296;28;20446;-83
2021/09/24 13:34:13;;;;;;;13.87;4.60;;;;;;;;;;5085199;28;20454;-82
2021/09/24 13:36:41;;;;;;;12.40;4.60;;;;;;;;;;5076286;28;20443;-83
2021/09/24 13:39:08;;;;;;;15.83;4.63;;;;;;;;;;5091890;28;20457;-83
2021/09/24 13:41:36;;;;;;;12.90;4.00;;;;;;;;;;5086541;28;20447;-82
2021/09/24 13:44:04;;;;;;;12.17;4.00;;;;;;;;;;5074519;28;20447;-83
2021/09/24 13:46:33;;;;;;;15.10;5.73;;;;;;;;;;5074179;28;20574;-82
2021/09/24 13:49:00;;;;;;;15.07;4.90;;;;;;;;;;5074957;28;20482;-83
2021/09/24 13:51:27;;;;;;;12.87;4.50;;;;;;;;;;5075006;28;20514;-82
2021/09/24 13:53:54;;;;;;;15.07;5.30;;;;;;;;;;5079753;28;21513;-82
2021/09/24 13:56:22;;;;;;;11.73;3.73;;;;;;;;;;5094651;28;21008;-82
2021/09/24 13:58:50;;;;;;;12.80;3.90;;;;;;;;;;5094637;28;20552;-82
2021/09/24 14:01:18;;;;;;;15.73;5.27;;;;;;;;;;5095471;28;20450;-83
2021/09/24 14:03:45;;;;;;;13.27;3.83;;;;;;;;;;5094709;28;20449;-83
2021/09/24 14:06:12;;;;;;;12.57;4.43;;;;;;;;;;5093478;28;20495;-82
2021/09/24 14:08:39;;;;;;;14.83;4.47;;;;;;;;;;5093574;28;20478;-82
2021/09/24 14:11:06;;;;;;;14.57;5.13;;;;;;;;;;5074179;28;20457;-81
2021/09/24 14:13:33;;;;;;;11.97;4.30;;;;;;;;;;5074518;28;20827;-81
2021/09/24 14:16:02;;;;;;;11.37;4.20;;;;;;;;;;5122048;22;20485;-82
2021/09/24 14:18:29;;;;;;;10.70;3.80;;;;;;;;;;5119083;28;20525;-81
2021/09/24 14:20:57;;;;;;;13.50;3.93;;;;;;;;;;5129808;28;20485;-80
2021/09/24 14:23:24;;;;;;;12.37;4.30;;;;;;;;;;5125487;28;20528;-81
2021/09/24 14:25:51;;;;;;;13.63;5.40;;;;;;;;;;5116866;28;20469;-81
2021/09/24 14:28:18;;;;;;;11.50;4.07;;;;;;;;;;5101075;28;20457;-80